createdAt,value
2023-07-14T00:02:02.135Z,100224.13
2023-07-14T00:04:35.042Z,100223.72
2023-07-14T00:07:05.160Z,100230.91
2023-07-14T00:09:34.795Z,100226.47
2023-07-14T00:12:03.411Z,100229.84
2023-07-14T00:14:31.637Z,100228.59
2023-07-14T00:16:59.937Z,100235.13
2023-07-14T00:19:28.937Z,100230.06
2023-07-14T00:21:58.679Z,100240.19
2023-07-14T00:24:27.783Z,100234.91
2023-07-14T00:26:57.878Z,100237.03
2023-07-14T00:29:44.392Z,100233.44
2023-07-14T00:32:19.257Z,100239.16
2023-07-14T00:34:47.399Z,100237.47
2023-07-14T00:37:17.128Z,100240.63
2023-07-14T00:39:45.862Z,100244.03
2023-07-14T00:42:16.176Z,100242.34
2023-07-14T00:44:46.279Z,100240.63
2023-07-14T00:47:21.614Z,100235.13
2023-07-14T00:49:52.383Z,100237.25
2023-07-14T00:52:29.791Z,100231.13
2023-07-14T00:54:59.350Z,100239.38
2023-07-14T00:57:32.254Z,100239.38
2023-07-14T01:00:22.180Z,100247.59
2023-07-14T01:02:53.231Z,100247.59
2023-07-14T01:05:21.614Z,100256.91
2023-07-14T01:07:52.238Z,100255.19
2023-07-14T01:10:25.331Z,100250.75
2023-07-14T01:12:59.941Z,100253.50
2023-07-14T01:15:28.728Z,100249.91
2023-07-14T01:17:57.884Z,100255.59
2023-07-14T01:20:26.350Z,100262.97
2023-07-14T01:23:06.878Z,100269.53
2023-07-14T01:25:50.273Z,100265.09
2023-07-14T01:28:21.202Z,100261.50
2023-07-14T01:30:49.573Z,100268.06
2023-07-14T01:33:19.620Z,100281.78
2023-07-14T01:35:52.393Z,100278.19
2023-07-14T01:38:21.414Z,100275.66
2023-07-14T01:40:55.254Z,100282.22
2023-07-14T01:43:25.351Z,100281.16
2023-07-14T01:45:58.045Z,100276.94
2023-07-14T01:48:29.318Z,100276.09
2023-07-14T01:51:00.577Z,100273.53
2023-07-14T01:53:38.332Z,100279.03
2023-07-14T01:56:09.672Z,100272.69
2023-07-14T01:58:54.017Z,100275.66
2023-07-14T02:01:24.856Z,100281.34
2023-07-14T02:03:58.966Z,100281.34
2023-07-14T02:06:27.708Z,100283.25
2023-07-14T02:08:59.646Z,100269.75
2023-07-14T02:11:29.890Z,100279.88
2023-07-14T02:14:01.015Z,100272.72
2023-07-14T02:16:31.210Z,100271.88
2023-07-14T02:18:59.521Z,100286.59
2023-07-14T02:21:31.950Z,100281.13
2023-07-14T02:24:01.629Z,100279.44
2023-07-14T02:26:34.269Z,100282.19
2023-07-14T02:29:03.624Z,100278.59
2023-07-14T02:31:39.323Z,100279.88
2023-07-14T02:34:13.096Z,100282.59
2023-07-14T02:36:44.504Z,100291.69
2023-07-14T02:39:15.607Z,100287.25
2023-07-14T02:41:44.915Z,100291.91
2023-07-14T02:44:18.336Z,100298.44
2023-07-14T02:46:50.459Z,100300.75
2023-07-14T02:49:21.074Z,100307.94
2023-07-14T02:51:49.526Z,100315.28
2023-07-14T02:54:20.320Z,100319.09
2023-07-14T02:56:48.535Z,100318.03
2023-07-14T02:59:21.460Z,100319.09
2023-07-14T03:01:50.187Z,100324.59
2023-07-14T03:04:18.806Z,100321.00
2023-07-14T03:06:49.622Z,100324.81
2023-07-14T03:09:17.986Z,100320.38
2023-07-14T03:11:46.203Z,100322.28
2023-07-14T03:14:14.417Z,100325.84
2023-07-14T03:16:44.202Z,100321.63
2023-07-14T03:19:12.441Z,100326.28
2023-07-14T03:21:40.486Z,100327.13
2023-07-14T03:24:09.118Z,100326.50
2023-07-14T03:26:37.473Z,100330.06
2023-07-14T03:29:05.630Z,100332.16
2023-07-14T03:31:33.966Z,100325.81
2023-07-14T03:34:03.499Z,100337.66
2023-07-14T03:36:32.172Z,100336.81
2023-07-14T03:39:26.994Z,100338.69
2023-07-14T03:41:56.989Z,100341.66
2023-07-14T03:44:26.845Z,100333.44
2023-07-14T03:46:55.556Z,100333.63
2023-07-14T03:49:25.100Z,100337.22
2023-07-14T03:51:55.935Z,100340.19
2023-07-14T03:54:24.137Z,100347.56
2023-07-14T03:56:53.596Z,100353.06
2023-07-14T03:59:21.984Z,100348.63
2023-07-14T04:01:50.196Z,100357.69
2023-07-14T04:04:21.102Z,100355.78
2023-07-14T04:06:53.262Z,100359.59
2023-07-14T04:09:21.975Z,100358.75
2023-07-14T04:11:50.180Z,100363.38
2023-07-14T04:14:21.724Z,100367.19
2023-07-14T04:16:52.531Z,100356.22
2023-07-14T04:19:20.787Z,100365.47
2023-07-14T04:21:50.982Z,100373.69
2023-07-14T04:24:19.226Z,100376.44
2023-07-14T04:26:47.381Z,100369.25
2023-07-14T04:29:18.793Z,100371.38
2023-07-14T04:31:49.545Z,100385.72
2023-07-14T04:34:18.870Z,100384.88
2023-07-14T04:36:48.409Z,100378.56
2023-07-14T04:39:17.958Z,100384.03
2023-07-14T04:41:46.384Z,100383.19
2023-07-14T04:44:17.119Z,100385.09
2023-07-14T04:46:50.082Z,100387.84
2023-07-14T04:49:18.581Z,100387.84
2023-07-14T04:51:47.150Z,100392.47
2023-07-14T04:54:17.049Z,100400.91
2023-07-14T04:56:45.532Z,100397.13
2023-07-14T04:59:13.776Z,100408.09
2023-07-14T05:01:42.033Z,100400.91
2023-07-14T05:04:13.564Z,100409.78
2023-07-14T05:06:42.255Z,100413.56
2023-07-14T05:09:12.305Z,100419.06
2023-07-14T05:11:43.041Z,100427.28
2023-07-14T05:14:11.148Z,100417.38
2023-07-14T05:16:39.337Z,100431.09
2023-07-14T05:19:07.557Z,100436.56
2023-07-14T05:21:35.671Z,100441.00
2023-07-14T05:24:05.177Z,100432.97
2023-07-14T05:26:37.158Z,100437.63
2023-07-14T05:29:10.209Z,100441.22
2023-07-14T05:31:39.792Z,100442.91
2023-07-14T05:34:10.472Z,100435.94
2023-07-14T05:36:39.235Z,100432.13
2023-07-14T05:39:07.653Z,100433.81
2023-07-14T05:41:36.031Z,100444.81
2023-07-14T05:44:07.266Z,100445.84
2023-07-14T05:46:36.798Z,100441.22
2023-07-14T05:49:05.006Z,100443.09
2023-07-14T05:51:33.130Z,100437.63
2023-07-14T05:54:01.839Z,100435.72
2023-07-14T05:56:30.176Z,100432.13
2023-07-14T05:58:58.435Z,100441.22
2023-07-14T06:01:26.635Z,100447.53
2023-07-14T06:03:56.294Z,100448.59
2023-07-14T06:06:24.432Z,100444.38
2023-07-14T06:08:53.912Z,100438.88
2023-07-14T06:11:25.005Z,100449.66
2023-07-14T06:13:53.097Z,100451.53
2023-07-14T06:16:21.719Z,100447.97
2023-07-14T06:18:50.281Z,100444.72
2023-07-14T06:21:20.214Z,100440.78
2023-07-14T06:23:48.499Z,100445.22
2023-07-14T06:26:16.826Z,100459.78
2023-07-14T06:28:44.962Z,100456.19
2023-07-14T06:31:15.445Z,100461.66
2023-07-14T06:33:46.226Z,100452.59
2023-07-14T06:36:15.965Z,100455.13
2023-07-14T06:38:45.633Z,100454.09
2023-07-14T06:41:16.822Z,100455.13
2023-07-14T06:43:48.256Z,100465.06
2023-07-14T06:46:17.000Z,100460.41
2023-07-14T06:48:47.096Z,100462.31
2023-07-14T06:51:16.006Z,100470.34
2023-07-14T06:53:46.740Z,100468.44
2023-07-14T06:56:15.634Z,100468.44
2023-07-14T06:58:44.259Z,100462.94
2023-07-14T07:01:12.621Z,100466.75
2023-07-14T07:03:41.961Z,100458.31
2023-07-14T07:06:12.483Z,100456.63
2023-07-14T07:08:40.936Z,100459.16
2023-07-14T07:11:14.043Z,100458.09
2023-07-14T07:13:44.294Z,100453.66
2023-07-14T07:16:13.080Z,100460.84
2023-07-14T07:18:41.484Z,100457.25
2023-07-14T07:21:13.612Z,100460.84
2023-07-14T07:23:41.840Z,100470.97
2023-07-14T07:26:11.647Z,100467.16
2023-07-14T07:28:39.922Z,100467.16
2023-07-14T07:31:10.665Z,100468.00
2023-07-14T07:33:39.452Z,100473.50
2023-07-14T07:36:16.242Z,100471.59
2023-07-14T07:38:46.950Z,100477.94
2023-07-14T07:41:17.511Z,100468.84
2023-07-14T07:43:46.192Z,100472.44
2023-07-14T07:46:20.392Z,100471.44
2023-07-14T07:48:51.285Z,100476.72
2023-07-14T07:51:29.429Z,100479.66
2023-07-14T07:53:57.639Z,100474.81
2023-07-14T07:56:29.675Z,100472.06
2023-07-14T07:58:57.917Z,100465.53
2023-07-14T08:01:30.700Z,100469.97
2023-07-14T08:04:01.775Z,100469.97
2023-07-14T08:06:30.675Z,100476.28
2023-07-14T08:08:59.253Z,100466.16
2023-07-14T08:11:29.892Z,100469.75
2023-07-14T08:14:00.169Z,100464.25
2023-07-14T08:16:28.401Z,100463.41
2023-07-14T08:18:56.536Z,100460.47
2023-07-14T08:21:24.617Z,100456.88
2023-07-14T08:23:53.904Z,100466.59
2023-07-14T08:26:22.318Z,100457.50
2023-07-14T08:28:51.815Z,100465.56
2023-07-14T08:31:20.008Z,100460.09
2023-07-14T08:33:51.855Z,100469.78
2023-07-14T08:36:23.175Z,100463.47
2023-07-14T08:38:51.382Z,100467.06
2023-07-14T08:41:29.917Z,100463.25
2023-07-14T08:44:29.923Z,100462.19
2023-07-14T08:47:06.339Z,100459.44
2023-07-14T08:49:46.124Z,100459.25
2023-07-14T08:52:21.782Z,100453.75
2023-07-14T08:54:57.742Z,100452.69
2023-07-14T08:57:27.806Z,100460.72
2023-07-14T09:00:01.988Z,100450.81
2023-07-14T09:02:37.715Z,100455.06
2023-07-14T09:05:10.798Z,100451.47
2023-07-14T09:07:39.597Z,100455.69
2023-07-14T09:10:11.348Z,100460.97
2023-07-14T09:12:50.396Z,100456.34
2023-07-14T09:15:25.993Z,100465.19
2023-07-14T09:18:05.049Z,100460.13
2023-07-14T09:21:04.178Z,100467.09
2023-07-14T09:23:55.852Z,100470.47
2023-07-14T09:26:31.959Z,100472.19
2023-07-14T09:29:09.355Z,100468.19
2023-07-14T09:31:53.689Z,100465.22
2023-07-14T09:34:28.403Z,100466.06
2023-07-14T09:36:58.274Z,100465.88
2023-07-14T09:39:33.595Z,100458.28
2023-07-14T09:42:05.764Z,100452.59
2023-07-14T09:44:33.968Z,100447.97
2023-07-14T09:47:06.165Z,100451.34
2023-07-14T09:49:40.594Z,100447.53
2023-07-14T09:52:15.721Z,100450.06
2023-07-14T09:54:52.109Z,100451.75
2023-07-14T09:57:37.710Z,100443.31
2023-07-14T10:00:17.247Z,100447.75
2023-07-14T10:02:52.261Z,100444.59
2023-07-14T10:05:43.137Z,100442.72
2023-07-14T10:08:27.401Z,100448.00
2023-07-14T10:10:58.823Z,100441.47
2023-07-14T10:13:29.054Z,100442.94
2023-07-14T10:16:04.971Z,100436.22
2023-07-14T10:18:52.160Z,100436.84
2023-07-14T10:21:27.358Z,100433.03
2023-07-14T10:24:00.366Z,100429.03
2023-07-14T10:26:33.635Z,100435.38
2023-07-14T10:29:03.814Z,100428.81
2023-07-14T10:31:39.032Z,100431.16
2023-07-14T10:34:29.720Z,100430.94
2023-07-14T10:37:02.250Z,100432.44
2023-07-14T10:39:37.921Z,100425.66
2023-07-14T10:42:12.251Z,100417.25
2023-07-14T10:44:44.354Z,100424.44
2023-07-14T10:47:22.851Z,100420.63
2023-07-14T10:50:00.054Z,100414.91
2023-07-14T10:52:32.795Z,100415.53
2023-07-14T10:55:06.283Z,100418.91
2023-07-14T10:57:43.317Z,100410.06
2023-07-14T11:00:22.926Z,100409.63
2023-07-14T11:03:04.536Z,100407.50
2023-07-14T11:05:35.271Z,100405.44
2023-07-14T11:08:03.505Z,100410.50
2023-07-14T11:10:41.878Z,100402.25
2023-07-14T11:13:23.147Z,100410.06
2023-07-14T11:15:59.774Z,100402.03
2023-07-14T11:18:36.134Z,100397.38
2023-07-14T11:21:20.271Z,100392.34
2023-07-14T11:23:57.452Z,100394.84
2023-07-14T11:26:32.308Z,100388.97
2023-07-14T11:29:10.380Z,100394.88
2023-07-14T11:31:46.909Z,100386.81
2023-07-14T11:34:25.403Z,100395.50
2023-07-14T11:37:05.994Z,100389.56
2023-07-14T11:39:44.070Z,100384.69
2023-07-14T11:42:20.394Z,100384.91
2023-07-14T11:44:51.486Z,100376.66
2023-07-14T11:47:26.214Z,100379.19
2023-07-14T11:49:56.616Z,100382.16
2023-07-14T11:52:28.234Z,100372.84
2023-07-14T11:55:05.417Z,100372.84
2023-07-14T11:57:49.864Z,100362.47
2023-07-14T12:00:24.890Z,100360.34
2023-07-14T12:03:02.091Z,100362.25
2023-07-14T12:05:37.525Z,100373.25
2023-07-14T12:08:24.264Z,100374.94
2023-07-14T12:10:54.636Z,100367.28
2023-07-14T12:13:29.319Z,100363.47
2023-07-14T12:16:22.785Z,100363.03
2023-07-14T12:19:24.104Z,100359.47
2023-07-14T12:22:08.784Z,100362.44
2023-07-14T12:24:43.460Z,100349.91
2023-07-14T12:27:26.607Z,100355.41
2023-07-14T12:30:04.532Z,100348.63
2023-07-14T12:32:33.017Z,100346.91
2023-07-14T12:35:01.231Z,100349.00
2023-07-14T12:37:35.515Z,100339.25
2023-07-14T12:40:14.452Z,100340.94
2023-07-14T12:42:46.901Z,100339.03
2023-07-14T12:45:18.292Z,100338.19
2023-07-14T12:47:47.854Z,100337.13
2023-07-14T12:50:17.688Z,100331.63
2023-07-14T12:52:46.993Z,100339.66
2023-07-14T12:55:21.217Z,100342.19
2023-07-14T12:57:53.018Z,100334.16
2023-07-14T13:00:25.924Z,100330.34
2023-07-14T13:02:56.345Z,100325.69
2023-07-14T13:05:31.407Z,100324.41
2023-07-14T13:07:59.874Z,100325.25
2023-07-14T13:10:33.549Z,100321.44
2023-07-14T13:13:01.739Z,100326.72
2023-07-14T13:15:35.006Z,100327.78
2023-07-14T13:18:11.093Z,100327.78
2023-07-14T13:20:42.887Z,100312.13
2023-07-14T13:23:23.377Z,100311.28
2023-07-14T13:25:59.434Z,100312.97
2023-07-14T13:28:33.767Z,100307.00
2023-07-14T13:31:07.374Z,100305.50
2023-07-14T13:33:35.587Z,100295.13
2023-07-14T13:36:08.707Z,100295.97
2023-07-14T13:38:37.456Z,100302.31
2023-07-14T13:41:12.698Z,100296.81
2023-07-14T13:43:41.416Z,100302.28
2023-07-14T13:46:15.411Z,100301.81
2023-07-14T13:48:44.338Z,100296.31
2023-07-14T13:51:20.106Z,100290.16
2023-07-14T13:53:48.304Z,100291.66
2023-07-14T13:56:21.419Z,100287.59
2023-07-14T13:58:50.804Z,100297.94
2023-07-14T14:01:21.952Z,100293.06
2023-07-14T14:03:52.526Z,100290.69
2023-07-14T14:06:21.640Z,100290.25
2023-07-14T14:08:50.033Z,100294.25
2023-07-14T14:11:19.615Z,100290.19
2023-07-14T14:13:47.657Z,100291.66
2023-07-14T14:16:19.293Z,100288.47
2023-07-14T14:18:51.822Z,100281.88
2023-07-14T14:21:19.782Z,100280.34
2023-07-14T14:23:47.840Z,100269.94
2023-07-14T14:26:18.124Z,100268.88
2023-07-14T14:28:48.674Z,100275.63
2023-07-14T14:31:16.913Z,100272.41
2023-07-14T14:33:50.024Z,100281.28
2023-07-14T14:36:18.337Z,100270.91
2023-07-14T14:38:47.972Z,100269.66
2023-07-14T15:01:22.066Z,100253.97
2023-07-14T15:03:50.672Z,100267.75
2023-07-14T15:06:21.728Z,100254.81
2023-07-14T15:08:50.238Z,100248.47
2023-07-14T15:11:20.025Z,100253.75
2023-07-14T15:13:51.180Z,100248.88
2023-07-14T15:16:20.824Z,100242.28
2023-07-14T15:18:48.977Z,100245.47
2023-07-14T15:21:21.008Z,100245.00
2023-07-14T15:23:49.672Z,100239.28
2023-07-14T15:26:21.135Z,100238.22
2023-07-14T15:28:50.235Z,100234.38
2023-07-14T15:31:20.585Z,100243.25
2023-07-14T15:33:49.844Z,100240.25
2023-07-14T15:36:19.915Z,100231.75
2023-07-14T15:38:48.726Z,100228.41
2023-07-14T15:41:22.668Z,100226.25
2023-07-14T15:43:52.603Z,100224.13
2023-07-14T15:46:23.892Z,100217.56
2023-07-14T15:48:54.365Z,100236.59
2023-07-14T15:51:27.066Z,100226.66
2023-07-14T15:53:58.343Z,100232.16
2023-07-14T15:56:27.046Z,100227.50
2023-07-14T15:58:55.929Z,100235.78
2023-07-14T16:01:29.855Z,100228.34
2023-07-14T16:03:58.823Z,100233.84
2023-07-14T16:06:27.617Z,100221.38
2023-07-14T16:08:56.888Z,100228.78
2023-07-14T16:11:30.224Z,100233.44
2023-07-14T16:13:59.493Z,100227.94
2023-07-14T16:16:29.112Z,100227.09
2023-07-14T16:18:57.511Z,100226.91
2023-07-14T16:21:31.544Z,100215.00
2023-07-14T16:24:03.006Z,100223.50
2023-07-14T16:26:31.423Z,100220.75
2023-07-14T16:29:01.795Z,100221.59
2023-07-14T16:31:31.764Z,100211.41
2023-07-14T16:33:59.899Z,100207.81
2023-07-14T16:36:32.924Z,100209.72
2023-07-14T16:39:04.230Z,100209.94
2023-07-14T16:41:35.295Z,100221.81
2023-07-14T16:44:06.681Z,100216.31
2023-07-14T16:46:50.521Z,100221.59
2023-07-14T16:49:18.658Z,100221.59
2023-07-14T16:51:50.189Z,100219.06
2023-07-14T16:54:36.196Z,100217.38
2023-07-14T16:57:12.219Z,100213.56
2023-07-14T16:59:40.369Z,100209.72
2023-07-14T17:02:21.598Z,100214.63
2023-07-14T17:04:50.356Z,100224.56
2023-07-14T17:07:21.946Z,100227.56
2023-07-14T17:09:51.341Z,100221.22
2023-07-14T17:12:20.337Z,100219.28
2023-07-14T17:14:48.793Z,100225.88
2023-07-14T17:17:19.618Z,100217.00
2023-07-14T17:19:47.861Z,100230.56
2023-07-14T17:22:19.740Z,100222.75
2023-07-14T17:24:52.905Z,100230.19
2023-07-14T17:27:21.611Z,100229.31
2023-07-14T17:29:52.498Z,100235.69
2023-07-14T17:32:22.898Z,100228.69
2023-07-14T17:34:51.889Z,100232.53
2023-07-14T17:37:24.983Z,100230.00
2023-07-14T17:39:53.318Z,100233.59
2023-07-14T17:42:24.304Z,100223.00
2023-07-14T17:44:56.338Z,100221.34
2023-07-14T17:47:26.440Z,100232.34
2023-07-14T17:49:54.734Z,100228.75
2023-07-14T17:52:23.356Z,100233.63
2023-07-14T17:54:51.438Z,100227.28
2023-07-14T17:57:23.232Z,100226.66
2023-07-14T17:59:53.438Z,100234.94
2023-07-14T18:02:26.626Z,100232.63
2023-07-14T18:04:56.443Z,100229.03
2023-07-14T18:07:25.297Z,100233.91
2023-07-14T18:09:53.589Z,100229.72
2023-07-14T18:12:22.718Z,100239.03
2023-07-14T18:14:50.974Z,100237.34
2023-07-14T18:17:20.255Z,100244.78
2023-07-14T18:19:51.802Z,100241.41
2023-07-14T18:22:29.552Z,100238.91
2023-07-14T18:24:58.640Z,100241.00
2023-07-14T18:27:27.039Z,100242.91
2023-07-14T18:29:55.714Z,100239.56
2023-07-14T18:32:23.868Z,100241.47
2023-07-14T18:34:54.813Z,100247.22
2023-07-14T18:37:24.361Z,100239.00
2023-07-14T18:39:52.874Z,100240.44
2023-07-14T18:42:26.971Z,100257.19
2023-07-14T18:44:56.025Z,100256.34
2023-07-14T18:47:24.263Z,100253.00
2023-07-14T18:49:52.498Z,100248.78
2023-07-14T18:52:21.272Z,100252.38
2023-07-14T18:54:51.127Z,100251.97
2023-07-14T18:57:20.874Z,100261.09
2023-07-14T18:59:50.043Z,100263.22
2023-07-14T19:02:30.539Z,100262.38
2023-07-14T19:05:01.550Z,100269.41
2023-07-14T19:07:33.263Z,100269.41
2023-07-14T19:10:06.357Z,100264.97
2023-07-14T19:12:36.858Z,100274.28
2023-07-14T19:15:18.600Z,100270.88
2023-07-14T19:17:47.948Z,100275.78
2023-07-14T19:20:17.411Z,100267.75
2023-07-14T19:22:48.295Z,100266.91
2023-07-14T19:25:19.782Z,100264.59
2023-07-14T19:27:49.388Z,100265.84
2023-07-14T19:30:22.526Z,100267.56
2023-07-14T19:32:57.850Z,100265.00
2023-07-14T19:35:27.609Z,100266.31
2023-07-14T19:37:55.833Z,100266.31
2023-07-14T19:40:29.885Z,100262.09
2023-07-14T19:42:58.278Z,100259.56
2023-07-14T19:45:26.892Z,100263.59
2023-07-14T19:47:55.464Z,100266.34
2023-07-14T19:50:24.192Z,100267.41
2023-07-14T19:52:52.984Z,100264.03
2023-07-14T19:55:22.919Z,100271.47
2023-07-14T19:57:53.408Z,100266.19
2023-07-14T20:00:23.742Z,100261.75
2023-07-14T20:02:53.066Z,100269.38
2023-07-14T20:05:25.373Z,100270.22
2023-07-14T20:07:54.227Z,100272.34
2023-07-14T20:10:24.272Z,100275.31
2023-07-14T20:12:54.165Z,100268.13
2023-07-14T20:15:26.367Z,100270.88
2023-07-14T20:17:57.496Z,100261.38
2023-07-14T20:20:25.646Z,100263.06
2023-07-14T20:22:59.459Z,100262.44
2023-07-14T20:25:30.600Z,100265.22
2023-07-14T20:28:02.935Z,100259.06
2023-07-14T20:30:31.085Z,100254.41
2023-07-14T20:32:59.318Z,100255.47
2023-07-14T20:35:27.538Z,100258.44
2023-07-14T20:37:55.647Z,100256.75
2023-07-14T20:40:23.776Z,100247.88
2023-07-14T20:42:52.371Z,100252.53
2023-07-14T20:45:23.072Z,100251.72
2023-07-14T20:47:54.000Z,100258.28
2023-07-14T20:50:22.510Z,100259.34
2023-07-14T20:52:52.937Z,100266.94
2023-07-14T20:55:38.796Z,100261.44
2023-07-14T20:58:13.044Z,100254.25
2023-07-14T21:00:43.169Z,100257.22
2023-07-14T21:03:18.646Z,100259.97
2023-07-14T21:05:48.383Z,100250.28
2023-07-14T21:08:19.137Z,100250.28
2023-07-14T21:10:47.695Z,100243.09
2023-07-14T21:13:18.994Z,100237.81
2023-07-14T21:15:49.758Z,100239.72
2023-07-14T21:18:20.921Z,100248.16
2023-07-14T21:20:50.072Z,100250.91
2023-07-14T21:23:23.356Z,100248.38
2023-07-14T21:25:53.386Z,100252.22
2023-07-14T21:28:22.375Z,100256.00
2023-07-14T21:30:55.122Z,100254.31
2023-07-14T21:33:28.706Z,100262.78
2023-07-14T21:35:57.633Z,100265.53
2023-07-14T21:38:28.389Z,100275.91
2023-07-14T21:40:58.114Z,100271.44
2023-07-14T21:43:31.191Z,100280.75
2023-07-14T21:46:02.559Z,100277.16
2023-07-14T21:48:33.679Z,100279.91
2023-07-14T21:51:10.050Z,100293.06
2023-07-14T21:53:38.385Z,100283.13
2023-07-14T21:56:06.533Z,100279.75
2023-07-14T21:58:35.382Z,100285.25
2023-07-14T22:01:19.524Z,100278.06
2023-07-14T22:03:51.425Z,100276.56
2023-07-14T22:06:21.339Z,100284.81
2023-07-14T22:08:49.496Z,100286.09
2023-07-14T22:11:21.968Z,100280.00
2023-07-14T22:13:50.398Z,100286.31
2023-07-14T22:16:21.920Z,100286.56
2023-07-14T22:18:52.601Z,100284.88
2023-07-14T22:21:23.194Z,100294.19
2023-07-14T22:23:52.665Z,100292.47
2023-07-14T22:26:23.077Z,100290.78
2023-07-14T22:28:52.235Z,100293.75
2023-07-14T22:31:25.860Z,100299.25
2023-07-14T22:33:59.954Z,100303.06
2023-07-14T22:36:31.532Z,100304.97
2023-07-14T22:39:00.847Z,100301.59
2023-07-14T22:41:34.248Z,100310.91
2023-07-14T22:44:04.867Z,100305.41
2023-07-14T22:46:34.539Z,100302.88
2023-07-14T22:49:04.246Z,100292.06
2023-07-14T22:51:36.736Z,100290.38
2023-07-14T22:54:06.096Z,100287.00
2023-07-14T22:56:34.286Z,100291.44
2023-07-14T22:59:04.016Z,100290.84
2023-07-14T23:01:36.396Z,100294.63
2023-07-14T23:04:04.963Z,100295.72
2023-07-14T23:06:33.315Z,100287.88
2023-07-14T23:09:01.456Z,100290.63
2023-07-14T23:11:33.819Z,100294.25
2023-07-14T23:14:03.535Z,100293.38
2023-07-14T23:16:32.109Z,100291.91
2023-07-14T23:19:01.641Z,100290.84
2023-07-14T23:21:32.135Z,100291.06
2023-07-14T23:24:01.626Z,100293.19
2023-07-14T23:26:31.709Z,100281.56
2023-07-14T23:28:59.972Z,100287.06
2023-07-14T23:31:32.291Z,100285.38
2023-07-14T23:34:02.465Z,100286.44
2023-07-14T23:36:31.340Z,100286.63
2023-07-14T23:38:59.644Z,100280.28
2023-07-14T23:41:31.682Z,100284.94
2023-07-14T23:44:02.668Z,100289.59
2023-07-14T23:46:34.069Z,100288.09
2023-07-14T23:49:10.933Z,100286.22
2023-07-14T23:51:41.470Z,100282.81
2023-07-14T23:54:13.611Z,100284.72
2023-07-14T23:56:41.804Z,100285.78
2023-07-14T23:59:15.572Z,100289.38
